Time;durP1;ratioP1;P1;durP2;ratioP2;P2;SDS_P1;SDS_P2;PMS_P1;PMS_P2;Temp;Humidity;BMP_temperature;BMP_pressure;BME280_temperature;BME280_humidity;BME280_pressure;Samples;Min_cycle;Max_cycle;Signal;HPM_P1;HPM_P2
2022/10/23 00:00:57;;;;;;;0.00;0.00;;;14.00;99.90;;;;;;5082661;28;20060;-88
2022/10/23 00:03:24;;;;;;;0.00;0.00;;;12.90;99.90;;;;;;5088063;28;20052;-87
2022/10/23 00:05:51;;;;;;;0.00;0.00;;;13.20;99.90;;;;;;5093411;28;20064;-87
2022/10/23 00:08:18;;;;;;;0.00;0.00;;;12.10;99.90;;;;;;5083633;28;20045;-88
2022/10/23 00:10:46;;;;;;;0.00;0.00;;;12.00;99.90;;;;;;5086456;28;20109;-87
2022/10/23 00:13:13;;;;;;;0.00;0.00;;;12.00;99.90;;;;;;5091378;28;20050;-87
2022/10/23 00:15:39;;;;;;;0.00;0.00;;;12.10;99.90;;;;;;5090656;28;20071;-87
2022/10/23 00:18:06;;;;;;;0.00;0.00;;;12.10;99.90;;;;;;5092880;28;20072;-89
2022/10/23 00:20:33;;;;;;;0.00;0.00;;;12.10;99.90;;;;;;5098875;28;20131;-87
2022/10/23 00:23:00;;;;;;;0.10;0.10;;;12.10;99.90;;;;;;5093546;28;20044;-87
2022/10/23 00:25:27;;;;;;;0.00;0.00;;;12.80;99.90;;;;;;5088412;28;20036;-87
2022/10/23 00:27:55;;;;;;;0.00;0.00;;;12.10;99.90;;;;;;5086022;28;20476;-88
2022/10/23 00:30:22;;;;;;;0.00;0.00;;;12.30;99.90;;;;;;5082969;28;20131;-87
2022/10/23 00:32:49;;;;;;;0.00;0.00;;;13.00;99.90;;;;;;5087457;28;20079;-88
2022/10/23 00:35:16;;;;;;;0.00;0.00;;;12.00;99.90;;;;;;5087263;28;20452;-87
2022/10/23 00:37:43;;;;;;;0.00;0.00;;;12.00;99.90;;;;;;5082040;28;20044;-87
2022/10/23 00:40:11;;;;;;;0.00;0.00;;;12.90;99.90;;;;;;5087688;28;20055;-88
2022/10/23 00:42:38;;;;;;;0.00;0.00;;;11.90;99.90;;;;;;5089567;28;20044;-88
2022/10/23 00:45:17;;;;;;;0.00;0.00;;;11.90;99.90;;;;;;5087501;28;20048;-88
2022/10/23 00:47:44;;;;;;;0.00;0.00;;;11.90;99.90;;;;;;5091527;28;20080;-88
2022/10/23 00:50:11;;;;;;;0.00;0.00;;;14.20;99.90;;;;;;5089105;28;20046;-86
2022/10/23 00:52:43;;;;;;;0.00;0.00;;;11.90;99.90;;;;;;5088622;28;20040;-87
2022/10/23 00:55:11;;;;;;;0.00;0.00;;;14.00;99.90;;;;;;5085483;28;20055;-88
2022/10/23 00:57:41;;;;;;;0.00;0.00;;;11.90;99.90;;;;;;5081671;28;20155;-87
2022/10/23 01:00:12;;;;;;;0.00;0.00;;;12.80;99.90;;;;;;5089418;28;20070;-88
2022/10/23 01:02:39;;;;;;;0.00;0.00;;;11.80;99.90;;;;;;5090522;28;20208;-86
2022/10/23 01:05:07;;;;;;;0.00;0.00;;;12.10;99.90;;;;;;5087896;28;20544;-87
2022/10/23 01:07:41;;;;;;;0.00;0.00;;;11.80;99.90;;;;;;5087582;28;20071;-87
2022/10/23 01:10:14;;;;;;;0.03;0.03;;;11.80;99.90;;;;;;5085562;28;20044;-87
2022/10/23 01:12:49;;;;;;;0.00;0.00;;;11.70;99.90;;;;;;5088047;28;20048;-87
2022/10/23 01:15:22;;;;;;;0.00;0.00;;;11.70;99.90;;;;;;5086525;28;20079;-87
2022/10/23 01:17:54;;;;;;;0.00;0.00;;;11.60;99.90;;;;;;5099169;28;20487;-88
2022/10/23 01:20:34;;;;;;;0.00;0.00;;;11.60;99.90;;;;;;5086237;28;20046;-88
2022/10/23 01:23:18;;;;;;;0.00;0.00;;;11.60;99.90;;;;;;5085075;28;20048;-87
2022/10/23 01:26:01;;;;;;;0.00;0.00;;;11.60;99.90;;;;;;5084198;28;20044;-87
2022/10/23 01:28:33;;;;;;;0.00;0.00;;;11.50;99.90;;;;;;5089523;28;20525;-87
2022/10/23 01:31:03;;;;;;;0.00;0.00;;;11.70;99.90;;;;;;5089432;28;20059;-86
2022/10/23 01:33:36;;;;;;;0.00;0.00;;;11.40;99.90;;;;;;5085558;28;20107;-87
2022/10/23 01:36:05;;;;;;;0.00;0.00;;;11.40;99.90;;;;;;5080420;28;20514;-87
2022/10/23 01:38:40;;;;;;;0.00;0.00;;;11.40;99.90;;;;;;5087049;28;20043;-87
2022/10/23 01:41:12;;;;;;;0.00;0.00;;;11.30;99.90;;;;;;5080725;28;20135;-88
2022/10/23 01:43:45;;;;;;;0.00;0.00;;;11.30;99.90;;;;;;5087177;28;20048;-88
2022/10/23 01:46:15;;;;;;;0.00;0.00;;;11.30;99.90;;;;;;5083937;28;20416;-87
2022/10/23 01:48:47;;;;;;;0.00;0.00;;;12.90;99.90;;;;;;5090865;28;20082;-87
2022/10/23 01:51:14;;;;;;;0.00;0.00;;;11.20;99.90;;;;;;5088701;28;20131;-88
2022/10/23 01:53:43;;;;;;;0.03;0.03;;;11.20;99.90;;;;;;5087476;28;20556;-87
2022/10/23 01:56:13;;;;;;;0.00;0.00;;;11.20;99.90;;;;;;5083073;28;20066;-87
2022/10/23 01:58:45;;;;;;;0.00;0.00;;;11.20;99.90;;;;;;5083747;28;20068;-87
2022/10/23 02:01:13;;;;;;;0.00;0.00;;;11.20;99.90;;;;;;5093288;28;20039;-88
2022/10/23 02:03:42;;;;;;;0.00;0.00;;;11.10;99.90;;;;;;5085894;28;20438;-87
2022/10/23 02:06:10;;;;;;;0.00;0.00;;;11.10;99.90;;;;;;5086632;28;20040;-87
2022/10/23 02:08:37;;;;;;;0.03;0.03;;;11.10;99.90;;;;;;5089051;28;20084;-88
2022/10/23 02:11:08;;;;;;;0.00;0.00;;;11.70;99.90;;;;;;5087270;28;20094;-87
2022/10/23 02:13:42;;;;;;;0.00;0.00;;;11.00;99.90;;;;;;5090634;28;20040;-88
2022/10/23 02:16:18;;;;;;;0.00;0.00;;;11.00;99.90;;;;;;5083474;28;20406;-87
2022/10/23 02:18:53;;;;;;;0.00;0.00;;;11.10;99.90;;;;;;5089266;28;20059;-87
2022/10/23 02:21:28;;;;;;;0.00;0.00;;;11.00;99.90;;;;;;5085194;28;20423;-87
2022/10/23 02:24:01;;;;;;;0.00;0.00;;;10.90;99.90;;;;;;5089060;28;20052;-87
2022/10/23 02:26:33;;;;;;;0.00;0.00;;;12.00;99.90;;;;;;5099352;28;20102;-87
2022/10/23 02:29:04;;;;;;;0.00;0.00;;;10.90;99.90;;;;;;5083813;28;20071;-88
2022/10/23 02:31:33;;;;;;;0.00;0.00;;;10.90;99.90;;;;;;5085544;28;20394;-87
2022/10/23 02:34:00;;;;;;;0.00;0.00;;;10.90;99.90;;;;;;5090977;28;20086;-88
2022/10/23 02:36:26;;;;;;;0.00;0.00;;;10.90;99.90;;;;;;5087165;28;20050;-88
2022/10/23 02:38:54;;;;;;;0.00;0.00;;;;;;;;;;5086470;28;20040;-87
2022/10/23 02:41:37;;;;;;;0.00;0.00;;;10.80;99.90;;;;;;5080858;28;20052;-88
2022/10/23 02:44:21;;;;;;;0.00;0.00;;;11.00;99.90;;;;;;5084573;28;20597;-87
2022/10/23 02:47:01;;;;;;;0.00;0.00;;;10.70;99.90;;;;;;5082164;28;20048;-86
2022/10/23 02:49:36;;;;;;;0.03;0.03;;;10.70;99.90;;;;;;5088531;28;20040;-87
2022/10/23 02:52:09;;;;;;;0.10;0.10;;;10.70;99.90;;;;;;5080640;28;20032;-87
2022/10/23 02:54:49;;;;;;;0.00;0.00;;;11.90;99.90;;;;;;5100620;28;20615;-88
2022/10/23 02:57:22;;;;;;;0.00;0.00;;;10.70;99.90;;;;;;5088712;28;20472;-88
2022/10/23 03:00:00;;;;;;;0.03;0.03;;;12.40;99.90;;;;;;5085822;28;20428;-88
2022/10/23 03:02:34;;;;;;;0.03;0.03;;;10.70;99.90;;;;;;5084171;28;20036;-86
2022/10/23 03:05:03;;;;;;;0.00;0.00;;;11.70;99.90;;;;;;5085365;28;20060;-87
2022/10/23 03:07:30;;;;;;;0.00;0.00;;;10.70;99.90;;;;;;5088823;28;20036;-87
2022/10/23 03:09:57;;;;;;;0.08;0.08;;;10.70;99.90;;;;;;5083033;28;20052;-87
2022/10/23 03:12:24;;;;;;;0.00;0.00;;;10.60;99.90;;;;;;5087620;28;20044;-87
2022/10/23 03:14:51;;;;;;;0.10;0.10;;;10.60;99.90;;;;;;5085421;28;20047;-87
2022/10/23 03:17:18;;;;;;;0.10;0.10;;;10.60;99.90;;;;;;5086781;28;20040;-88
2022/10/23 03:19:46;;;;;;;0.00;0.00;;;10.50;99.90;;;;;;5082561;28;20060;-88
2022/10/23 03:22:13;;;;;;;0.10;0.10;;;10.50;99.90;;;;;;5085530;28;20139;-88
2022/10/23 03:24:40;;;;;;;0.00;0.00;;;10.50;99.90;;;;;;5084819;28;20518;-88
2022/10/23 03:27:07;;;;;;;0.00;0.00;;;10.50;99.90;;;;;;5087506;28;20075;-88
2022/10/23 03:29:33;;;;;;;0.00;0.00;;;10.50;99.90;;;;;;5088009;28;20048;-87
2022/10/23 03:32:00;;;;;;;0.10;0.10;;;11.40;99.90;;;;;;5085182;28;20058;-87
2022/10/23 03:34:27;;;;;;;0.00;0.00;;;10.50;99.90;;;;;;5087301;28;20389;-88
2022/10/23 03:36:55;;;;;;;0.00;0.00;;;10.90;99.90;;;;;;5089355;28;20044;-88
2022/10/23 03:39:22;;;;;;;0.10;0.10;;;10.50;99.90;;;;;;5090943;28;21428;-88
2022/10/23 03:41:49;;;;;;;0.10;0.10;;;11.70;99.90;;;;;;5084054;28;20059;-88
2022/10/23 03:44:16;;;;;;;0.00;0.00;;;10.50;99.90;;;;;;5085294;28;20048;-87
2022/10/23 03:46:43;;;;;;;0.00;0.00;;;10.50;99.90;;;;;;5088924;28;20052;-87
2022/10/23 03:49:10;;;;;;;0.00;0.00;;;10.50;99.90;;;;;;5090595;28;20127;-87
2022/10/23 03:51:40;;;;;;;0.00;0.00;;;;;;;;;;5090071;28;20826;-88
2022/10/23 03:54:08;;;;;;;0.00;0.00;;;10.50;99.90;;;;;;5092722;28;20484;-87
2022/10/23 03:56:36;;;;;;;0.00;0.00;;;;;;;;;;5084838;28;20046;-88
2022/10/23 03:59:03;;;;;;;0.00;0.00;;;10.50;99.90;;;;;;5092103;28;20039;-88
2022/10/23 04:01:30;;;;;;;0.00;0.00;;;10.50;99.90;;;;;;5091468;28;20306;-88
2022/10/23 04:03:57;;;;;;;0.00;0.00;;;10.50;99.90;;;;;;5089490;28;20036;-87
2022/10/23 04:06:24;;;;;;;0.00;0.00;;;11.10;99.90;;;;;;5092281;28;20135;-89
2022/10/23 04:08:51;;;;;;;0.00;0.00;;;10.40;99.90;;;;;;5088774;28;20115;-88
2022/10/23 04:11:19;;;;;;;0.00;0.00;;;11.20;99.90;;;;;;5090358;28;20050;-88
2022/10/23 04:13:46;;;;;;;0.00;0.00;;;;;;;;;;5087864;28;20119;-89
2022/10/23 04:16:13;;;;;;;0.00;0.00;;;10.40;99.90;;;;;;5091754;28;20526;-88
2022/10/23 04:18:41;;;;;;;0.00;0.00;;;10.50;99.90;;;;;;5089429;28;20079;-88
2022/10/23 04:21:08;;;;;;;0.00;0.00;;;10.50;99.90;;;;;;5092057;28;20048;-89
2022/10/23 04:23:35;;;;;;;0.05;0.05;;;10.50;99.90;;;;;;5092901;28;20040;-89
2022/10/23 04:26:02;;;;;;;0.00;0.00;;;10.50;99.90;;;;;;5090065;28;20131;-88
2022/10/23 04:28:30;;;;;;;0.00;0.00;;;10.50;99.90;;;;;;5091718;28;20044;-88
2022/10/23 04:30:57;;;;;;;0.00;0.00;;;10.50;99.90;;;;;;5090443;28;20078;-88
2022/10/23 04:33:24;;;;;;;0.00;0.00;;;10.50;99.90;;;;;;5089468;28;20044;-87
2022/10/23 04:35:51;;;;;;;0.00;0.00;;;;;;;;;;5094343;28;20478;-88
2022/10/23 04:38:18;;;;;;;0.03;0.03;;;10.40;99.90;;;;;;5103809;28;20050;-89
2022/10/23 04:40:45;;;;;;;0.00;0.00;;;10.50;99.90;;;;;;5099343;28;20086;-88
2022/10/23 04:43:12;;;;;;;0.00;0.00;;;10.50;99.90;;;;;;5089235;28;20032;-88
2022/10/23 04:45:40;;;;;;;0.00;0.00;;;10.40;99.90;;;;;;5089397;28;20052;-87
2022/10/23 04:48:06;;;;;;;0.00;0.00;;;10.40;99.90;;;;;;5089176;28;20083;-87
2022/10/23 04:50:33;;;;;;;0.00;0.00;;;10.40;99.90;;;;;;5088550;28;20044;-88
2022/10/23 04:53:00;;;;;;;0.00;0.00;;;10.60;99.90;;;;;;5089675;28;20052;-88
2022/10/23 04:55:27;;;;;;;0.00;0.00;;;10.50;99.90;;;;;;5089350;28;20048;-87
2022/10/23 04:57:54;;;;;;;0.00;0.00;;;10.70;99.90;;;;;;5090829;28;20070;-88
2022/10/23 05:00:21;;;;;;;0.00;0.00;;;10.40;99.90;;;;;;5086089;28;20121;-87
2022/10/23 05:02:49;;;;;;;0.10;0.10;;;10.40;99.90;;;;;;5082507;28;20052;-87
2022/10/23 05:05:16;;;;;;;0.00;0.00;;;10.40;99.90;;;;;;5088588;28;20044;-88
2022/10/23 05:07:43;;;;;;;0.00;0.00;;;10.50;99.90;;;;;;5091050;28;20052;-87
2022/10/23 05:10:11;;;;;;;0.00;0.00;;;10.40;99.90;;;;;;5089036;28;20105;-87
2022/10/23 05:12:37;;;;;;;0.00;0.00;;;12.10;99.90;;;;;;5086844;28;20074;-89
2022/10/23 05:15:05;;;;;;;0.08;0.08;;;10.40;99.90;;;;;;5084527;28;20201;-87
2022/10/23 05:17:36;;;;;;;0.05;0.05;;;10.40;99.90;;;;;;5084184;28;20041;-87
2022/10/23 05:20:11;;;;;;;0.00;0.00;;;10.40;99.90;;;;;;5085274;28;20043;-87
2022/10/23 05:22:41;;;;;;;0.00;0.00;;;10.40;99.90;;;;;;5091851;28;20052;-87
2022/10/23 05:25:09;;;;;;;0.00;0.00;;;10.40;99.90;;;;;;5089697;28;20393;-88
2022/10/23 05:27:35;;;;;;;0.00;0.00;;;11.60;99.90;;;;;;5086820;28;20520;-86
2022/10/23 05:30:03;;;;;;;0.10;0.10;;;10.40;99.90;;;;;;5087642;28;20046;-88
2022/10/23 05:32:32;;;;;;;0.00;0.00;;;10.40;99.90;;;;;;5084750;28;20046;-87
2022/10/23 05:35:01;;;;;;;0.00;0.00;;;10.40;99.90;;;;;;5087018;28;20127;-87
2022/10/23 05:37:30;;;;;;;0.00;0.00;;;10.50;99.90;;;;;;5085614;28;20043;-87
2022/10/23 05:39:57;;;;;;;0.00;0.00;;;10.60;99.90;;;;;;5084490;28;20040;-89
2022/10/23 05:42:24;;;;;;;0.00;0.00;;;10.50;99.90;;;;;;5087362;28;20116;-86
2022/10/23 05:44:51;;;;;;;0.00;0.00;;;10.50;99.90;;;;;;5087556;28;20051;-87
2022/10/23 05:47:17;;;;;;;0.00;0.00;;;12.00;99.90;;;;;;5085759;28;20047;-87
2022/10/23 05:49:44;;;;;;;0.00;0.00;;;;;;;;;;5086869;28;20135;-88
2022/10/23 05:52:11;;;;;;;0.00;0.00;;;10.60;99.90;;;;;;5088214;28;20484;-88
2022/10/23 05:54:40;;;;;;;0.00;0.00;;;10.60;99.90;;;;;;5086980;28;20598;-87
2022/10/23 05:57:07;;;;;;;0.05;0.05;;;11.30;99.90;;;;;;5087955;28;20067;-88
2022/10/23 05:59:34;;;;;;;0.00;0.00;;;11.10;99.90;;;;;;5090473;28;20050;-88
2022/10/23 06:02:01;;;;;;;0.00;0.00;;;10.70;99.90;;;;;;5089305;28;20051;-88
2022/10/23 06:04:28;;;;;;;0.10;0.10;;;12.40;99.90;;;;;;5086162;28;20055;-88
2022/10/23 06:06:55;;;;;;;0.00;0.00;;;10.80;99.90;;;;;;5083841;28;20040;-87
2022/10/23 06:09:22;;;;;;;0.00;0.00;;;10.80;99.90;;;;;;5087654;28;20419;-87
2022/10/23 06:11:50;;;;;;;0.00;0.00;;;11.90;99.90;;;;;;5089257;28;20079;-88
2022/10/23 06:14:17;;;;;;;0.00;0.00;;;10.90;99.90;;;;;;5089528;28;20062;-87
2022/10/23 06:16:44;;;;;;;0.00;0.00;;;;;;;;;;5086356;28;20079;-87
2022/10/23 06:19:11;;;;;;;0.00;0.00;;;11.00;99.90;;;;;;5088257;28;20143;-88
2022/10/23 06:21:39;;;;;;;0.00;0.00;;;11.20;99.90;;;;;;5088202;28;20051;-89
2022/10/23 06:24:06;;;;;;;0.00;0.00;;;11.20;99.90;;;;;;5089316;28;20040;-87
2022/10/23 06:26:33;;;;;;;0.05;0.05;;;11.10;99.90;;;;;;5087514;28;20739;-88
2022/10/23 06:29:02;;;;;;;0.00;0.00;;;11.20;99.90;;;;;;5088414;28;20083;-88
2022/10/23 06:31:29;;;;;;;0.00;0.00;;;;;;;;;;5081068;28;20032;-88
2022/10/23 06:33:58;;;;;;;0.08;0.08;;;11.20;99.90;;;;;;5089906;28;20036;-87
2022/10/23 06:36:25;;;;;;;0.03;0.03;;;11.30;99.90;;;;;;5088327;28;20431;-87
2022/10/23 06:38:52;;;;;;;0.00;0.00;;;13.20;99.90;;;;;;5084311;28;20044;-87
2022/10/23 06:41:20;;;;;;;0.00;0.00;;;11.40;99.90;;;;;;5082480;28;20044;-88
2022/10/23 06:43:48;;;;;;;0.00;0.00;;;12.80;99.90;;;;;;5082055;28;20136;-87
2022/10/23 06:46:17;;;;;;;0.00;0.00;;;11.40;99.90;;;;;;5087431;28;20412;-87
2022/10/23 06:48:44;;;;;;;0.10;0.08;;;11.40;99.90;;;;;;5081719;28;20040;-87
2022/10/23 06:51:15;;;;;;;0.00;0.00;;;11.50;99.90;;;;;;5083301;28;20086;-88
2022/10/23 06:53:43;;;;;;;0.00;0.00;;;11.60;99.90;;;;;;5085682;28;20052;-89
2022/10/23 06:56:10;;;;;;;0.00;0.00;;;12.40;99.90;;;;;;5082768;28;20133;-87
2022/10/23 06:58:38;;;;;;;0.05;0.05;;;11.60;99.90;;;;;;5088401;28;20058;-87
2022/10/23 07:01:07;;;;;;;0.00;0.00;;;11.70;99.90;;;;;;5082678;28;20076;-88
2022/10/23 07:03:36;;;;;;;0.00;0.00;;;12.70;99.90;;;;;;5087179;28;20052;-88
2022/10/23 07:06:07;;;;;;;0.03;0.03;;;11.70;99.90;;;;;;5087867;28;20568;-88
2022/10/23 07:08:35;;;;;;;0.00;0.00;;;11.80;99.90;;;;;;5089644;28;20056;-88
2022/10/23 07:11:03;;;;;;;0.00;0.00;;;11.90;99.90;;;;;;5087807;28;20111;-86
2022/10/23 07:13:30;;;;;;;0.00;0.00;;;12.00;99.90;;;;;;5088585;28;20047;-88
2022/10/23 07:15:57;;;;;;;0.00;0.00;;;;;;;;;;5086130;28;20039;-87
2022/10/23 07:18:24;;;;;;;0.00;0.00;;;12.10;99.90;;;;;;5092637;28;20123;-87
2022/10/23 07:20:57;;;;;;;0.00;0.00;;;12.20;99.90;;;;;;5084739;28;20105;-87
2022/10/23 07:23:24;;;;;;;0.00;0.00;;;;;;;;;;5091965;28;20127;-87
2022/10/23 07:25:51;;;;;;;0.00;0.00;;;12.30;99.90;;;;;;5086623;28;20152;-88
2022/10/23 07:28:18;;;;;;;0.00;0.00;;;12.50;99.90;;;;;;5089142;28;20028;-87
2022/10/23 07:30:55;;;;;;;0.00;0.00;;;12.50;99.90;;;;;;5090115;28;20066;-87
2022/10/23 07:33:22;;;;;;;0.00;0.00;;;12.60;99.90;;;;;;5088581;28;20575;-89
2022/10/23 07:35:49;;;;;;;0.00;0.00;;;;;;;;;;5086650;28;20082;-88
2022/10/23 07:38:17;;;;;;;0.00;0.00;;;12.70;99.90;;;;;;5091839;28;20040;-86
2022/10/23 07:40:44;;;;;;;0.00;0.00;;;13.20;99.90;;;;;;5089139;28;20488;-87
2022/10/23 07:43:11;;;;;;;0.10;0.10;;;;;;;;;;5092531;28;20046;-87
2022/10/23 07:45:39;;;;;;;0.00;0.00;;;12.80;99.90;;;;;;5090484;28;20083;-87
2022/10/23 07:48:05;;;;;;;0.00;0.00;;;13.90;99.90;;;;;;5088388;28;20043;-88
2022/10/23 07:50:32;;;;;;;0.00;0.00;;;12.90;99.90;;;;;;5081177;28;20040;-86
2022/10/23 07:52:59;;;;;;;0.00;0.00;;;12.90;99.90;;;;;;5091925;28;20424;-87
2022/10/23 07:55:27;;;;;;;0.00;0.00;;;12.90;99.90;;;;;;5089884;28;20052;-86
2022/10/23 07:57:54;;;;;;;0.00;0.00;;;12.90;99.90;;;;;;5085922;28;20049;-87
2022/10/23 08:00:21;;;;;;;0.00;0.00;;;12.90;99.90;;;;;;5085470;28;20044;-87
2022/10/23 08:02:48;;;;;;;0.00;0.00;;;13.00;99.90;;;;;;5086246;28;20052;-87
2022/10/23 08:05:17;;;;;;;0.00;0.00;;;13.00;99.90;;;;;;5093121;28;20115;-87
2022/10/23 08:07:44;;;;;;;0.03;0.03;;;13.10;99.90;;;;;;5090473;28;20123;-87
2022/10/23 08:10:11;;;;;;;0.00;0.00;;;13.50;99.90;;;;;;5090570;28;20095;-87
2022/10/23 08:12:39;;;;;;;0.00;0.00;;;13.90;99.90;;;;;;5086623;28;20473;-87
2022/10/23 08:15:08;;;;;;;0.00;0.00;;;13.40;99.90;;;;;;5088032;28;20466;-88
2022/10/23 08:17:34;;;;;;;0.00;0.00;;;13.50;99.90;;;;;;5090963;28;20040;-87
2022/10/23 08:20:02;;;;;;;0.00;0.00;;;13.60;99.90;;;;;;5086880;28;20043;-87
2022/10/23 08:22:29;;;;;;;0.00;0.00;;;13.60;99.90;;;;;;5090379;28;20492;-89
2022/10/23 08:24:56;;;;;;;0.00;0.00;;;13.70;99.90;;;;;;5091152;28;20083;-87
2022/10/23 08:27:23;;;;;;;0.00;0.00;;;14.40;99.90;;;;;;5089147;28;20123;-87
2022/10/23 08:29:51;;;;;;;0.00;0.00;;;13.80;99.90;;;;;;5089191;28;20039;-87
2022/10/23 08:32:18;;;;;;;0.00;0.00;;;13.70;99.90;;;;;;5092955;28;20044;-89
2022/10/23 08:34:45;;;;;;;0.00;0.00;;;13.80;99.90;;;;;;5092846;28;20048;-87
2022/10/23 08:37:11;;;;;;;0.00;0.00;;;13.90;99.90;;;;;;5086589;28;20051;-88
2022/10/23 08:39:38;;;;;;;0.00;0.00;;;14.30;99.90;;;;;;5085824;28;20108;-89
2022/10/23 08:42:05;;;;;;;0.00;0.00;;;13.90;99.90;;;;;;5084769;28;20091;-88
2022/10/23 08:44:38;;;;;;;0.00;0.00;;;14.60;99.90;;;;;;5090304;28;20123;-88
2022/10/23 08:47:10;;;;;;;0.00;0.00;;;14.10;99.90;;;;;;5082834;28;20051;-88
2022/10/23 08:49:44;;;;;;;0.00;0.00;;;14.20;99.90;;;;;;5077812;28;20041;-89
2022/10/23 08:52:16;;;;;;;0.00;0.00;;;14.20;99.90;;;;;;5088160;28;20067;-87
2022/10/23 08:54:54;;;;;;;0.00;0.00;;;14.30;99.90;;;;;;5087608;28;20130;-87
2022/10/23 08:57:23;;;;;;;0.00;0.00;;;14.20;99.90;;;;;;5089310;28;20512;-88
2022/10/23 08:59:56;;;;;;;0.00;0.00;;;14.30;99.90;;;;;;5088882;28;20040;-89
2022/10/23 09:02:26;;;;;;;0.00;0.00;;;14.50;99.90;;;;;;5086595;28;20046;-86
2022/10/23 09:04:56;;;;;;;0.00;0.00;;;14.40;99.90;;;;;;5090377;28;20101;-88
2022/10/23 09:07:32;;;;;;;0.00;0.00;;;14.40;99.90;;;;;;5087444;28;20127;-86
2022/10/23 09:10:28;;;;;;;0.00;0.00;;;15.30;99.90;;;;;;5087905;28;20181;-87
2022/10/23 09:12:58;;;;;;;0.00;0.00;;;15.80;99.90;;;;;;5081150;28;20044;-87
2022/10/23 09:15:33;;;;;;;0.00;0.00;;;14.80;99.90;;;;;;5084885;28;20052;-87
2022/10/23 09:18:12;;;;;;;0.00;0.00;;;15.00;99.90;;;;;;5087652;28;20452;-88
2022/10/23 09:20:43;;;;;;;0.00;0.00;;;15.10;99.90;;;;;;5089888;28;20044;-87
2022/10/23 09:23:14;;;;;;;0.00;0.00;;;15.10;99.90;;;;;;5088089;28;20320;-86
2022/10/23 09:25:42;;;;;;;0.00;0.00;;;;;;;;;;5089466;28;20081;-87
2022/10/23 09:28:18;;;;;;;0.00;0.00;;;15.10;99.90;;;;;;5087025;28;20041;-87
2022/10/23 09:30:45;;;;;;;0.00;0.00;;;15.20;99.90;;;;;;5089142;28;20160;-89
2022/10/23 09:33:14;;;;;;;0.00;0.00;;;15.30;99.90;;;;;;5084507;28;20590;-87
2022/10/23 09:35:52;;;;;;;0.00;0.00;;;15.90;99.90;;;;;;5088299;28;20085;-87
2022/10/23 09:38:29;;;;;;;0.00;0.00;;;15.50;99.90;;;;;;5082151;28;20393;-87
2022/10/23 09:40:58;;;;;;;0.00;0.00;;;15.50;99.90;;;;;;5086179;28;20150;-87
2022/10/23 09:43:26;;;;;;;;;;;15.60;99.90;;;;;;5089032;28;20130;-87
2022/10/23 09:45:59;;;;;;;0.00;0.00;;;15.60;99.90;;;;;;5100668;28;19962;-87
2022/10/23 09:48:28;;;;;;;0.00;0.00;;;15.70;99.90;;;;;;5086009;28;20048;-87
2022/10/23 09:50:57;;;;;;;0.00;0.00;;;15.80;99.90;;;;;;5087317;28;20040;-87
2022/10/23 09:53:35;;;;;;;0.00;0.00;;;15.80;99.90;;;;;;5087861;28;20048;-87
2022/10/23 09:56:06;;;;;;;0.00;0.00;;;15.90;99.90;;;;;;5105537;28;20147;-87
2022/10/23 09:58:37;;;;;;;0.00;0.00;;;15.90;99.90;;;;;;5081579;28;20040;-87
2022/10/23 10:01:04;;;;;;;0.00;0.00;;;16.00;99.90;;;;;;5085859;28;20060;-88
2022/10/23 10:03:36;;;;;;;0.00;0.00;;;17.30;99.90;;;;;;5087434;28;20082;-86
2022/10/23 10:06:03;;;;;;;0.00;0.00;;;16.20;99.90;;;;;;5081829;28;20162;-87
2022/10/23 10:08:43;;;;;;;0.00;0.00;;;16.30;99.90;;;;;;5083212;28;20403;-87
2022/10/23 10:11:14;;;;;;;0.00;0.00;;;16.30;99.90;;;;;;5085696;28;20044;-87
2022/10/23 10:13:58;;;;;;;0.00;0.00;;;16.60;99.90;;;;;;5071815;28;20052;-87
2022/10/23 10:16:38;;;;;;;0.10;0.10;;;16.60;99.90;;;;;;5087434;28;20126;-88
2022/10/23 10:19:21;;;;;;;0.00;0.00;;;16.60;99.90;;;;;;5083580;28;20036;-88
2022/10/23 10:21:55;;;;;;;0.00;0.00;;;16.70;99.90;;;;;;5099430;28;20067;-86
2022/10/23 10:24:29;;;;;;;0.00;0.00;;;16.80;99.90;;;;;;5087779;28;20048;-87
2022/10/23 10:27:02;;;;;;;0.10;0.10;;;16.80;99.90;;;;;;5082016;28;20105;-87
2022/10/23 10:29:45;;;;;;;0.00;0.00;;;17.00;99.90;;;;;;5083386;28;20143;-86
2022/10/23 10:32:30;;;;;;;0.00;0.00;;;17.00;99.90;;;;;;5081063;28;20054;-87
2022/10/23 10:35:08;;;;;;;0.00;0.00;;;17.00;99.90;;;;;;5086934;28;20510;-87
2022/10/23 10:37:49;;;;;;;0.00;0.00;;;17.00;99.90;;;;;;5071886;28;20147;-88
2022/10/23 10:40:22;;;;;;;0.00;0.00;;;17.00;99.90;;;;;;5085243;28;20044;-87
2022/10/23 10:43:08;;;;;;;0.00;0.00;;;17.60;99.90;;;;;;5087586;28;20294;-87
2022/10/23 10:45:38;;;;;;;0.00;0.00;;;17.30;99.90;;;;;;5078190;28;20036;-88
2022/10/23 10:48:33;;;;;;;0.00;0.00;;;17.20;99.90;;;;;;5088713;28;20039;-87
2022/10/23 10:51:06;;;;;;;0.00;0.00;;;17.30;99.90;;;;;;5082097;28;20092;-88
2022/10/23 10:53:43;;;;;;;0.00;0.00;;;17.40;99.90;;;;;;5093293;28;20112;-86
2022/10/23 10:56:14;;;;;;;0.00;0.00;;;17.80;99.90;;;;;;5092989;28;20044;-87
2022/10/23 10:58:45;;;;;;;0.00;0.00;;;17.50;99.90;;;;;;5089347;28;20040;-86
2022/10/23 11:01:25;;;;;;;0.00;0.00;;;18.00;99.90;;;;;;5090175;28;20044;-87
2022/10/23 11:03:53;;;;;;;;;;;17.60;99.90;;;;;;5092282;28;20291;-86
2022/10/23 11:06:26;;;;;;;0.00;0.00;;;17.60;99.90;;;;;;5093594;28;19919;-87
2022/10/23 11:08:53;;;;;;;0.00;0.00;;;17.60;99.90;;;;;;5088974;28;20158;-87
2022/10/23 11:11:40;;;;;;;0.00;0.00;;;17.60;99.90;;;;;;5091258;28;20059;-88
2022/10/23 11:14:14;;;;;;;0.00;0.00;;;17.60;99.90;;;;;;5086433;28;20591;-87
2022/10/23 11:16:45;;;;;;;0.00;0.00;;;17.60;99.90;;;;;;5087248;28;20040;-86
2022/10/23 11:19:19;;;;;;;0.00;0.00;;;17.60;99.90;;;;;;5086822;28;20487;-87
2022/10/23 11:21:55;;;;;;;0.00;0.00;;;17.60;99.90;;;;;;5088249;28;20143;-86
2022/10/23 11:24:57;;;;;;;0.00;0.00;;;17.70;99.90;;;;;;5092459;28;20040;-86
2022/10/23 11:27:45;;;;;;;0.00;0.00;;;17.70;99.90;;;;;;5087873;28;20044;-87
2022/10/23 11:30:21;;;;;;;0.00;0.00;;;17.70;99.90;;;;;;5088632;28;20048;-87
2022/10/23 11:33:21;;;;;;;0.00;0.00;;;17.70;99.90;;;;;;5092479;28;20080;-87
2022/10/23 11:36:02;;;;;;;0.00;0.00;;;17.90;99.90;;;;;;5091464;28;20558;-87
2022/10/23 11:38:33;;;;;;;0.00;0.00;;;18.00;99.90;;;;;;5086844;28;20555;-88
2022/10/23 11:41:03;;;;;;;0.00;0.00;;;18.10;99.90;;;;;;5088872;28;20044;-87
2022/10/23 11:43:32;;;;;;;;;;;18.20;99.90;;;;;;5088044;28;20051;-87
2022/10/23 11:46:11;;;;;;;0.00;0.00;;;18.50;99.90;;;;;;5088727;28;19946;-86
2022/10/23 11:48:40;;;;;;;0.00;0.00;;;18.20;99.90;;;;;;5087031;28;20040;-88
2022/10/23 11:51:25;;;;;;;0.00;0.00;;;18.30;99.90;;;;;;5089343;28;20055;-87
2022/10/23 11:54:04;;;;;;;0.00;0.00;;;18.40;99.90;;;;;;5083356;28;20052;-87
2022/10/23 11:56:33;;;;;;;0.00;0.00;;;18.50;99.90;;;;;;5084412;28;20075;-90
2022/10/23 11:59:20;;;;;;;0.00;0.00;;;18.40;99.90;;;;;;5092211;28;20062;-88
2022/10/23 12:01:49;;;;;;;0.00;0.00;;;18.40;99.90;;;;;;5092911;28;20138;-87
2022/10/23 12:04:22;;;;;;;0.00;0.00;;;18.40;99.90;;;;;;5087492;28;20052;-89
2022/10/23 12:06:52;;;;;;;0.00;0.00;;;18.50;99.90;;;;;;5093361;28;20131;-87
2022/10/23 12:09:35;;;;;;;0.00;0.00;;;18.50;99.90;;;;;;5095305;28;20591;-87
2022/10/23 12:12:24;;;;;;;0.00;0.00;;;18.70;99.90;;;;;;5084029;28;20122;-86
2022/10/23 12:14:51;;;;;;;0.00;0.00;;;18.50;99.90;;;;;;5089135;28;20103;-85
2022/10/23 12:17:29;;;;;;;0.00;0.00;;;18.60;99.90;;;;;;5090979;28;20123;-85
2022/10/23 12:20:11;;;;;;;0.00;0.00;;;18.60;99.90;;;;;;5089291;28;20128;-85
2022/10/23 12:22:44;;;;;;;0.00;0.00;;;18.70;99.90;;;;;;5095583;28;20492;-85
2022/10/23 12:25:15;;;;;;;0.00;0.00;;;18.80;99.90;;;;;;5095162;28;20123;-85
2022/10/23 12:27:50;;;;;;;0.00;0.00;;;18.70;99.90;;;;;;5095714;28;20483;-86
2022/10/23 12:30:22;;;;;;;0.00;0.00;;;19.30;99.90;;;;;;5093843;28;20519;-86
2022/10/23 12:33:14;;;;;;;0.00;0.00;;;18.70;99.90;;;;;;5095480;28;20083;-87
2022/10/23 12:36:08;;;;;;;0.00;0.00;;;18.70;99.90;;;;;;5090822;28;20099;-85
2022/10/23 12:38:43;;;;;;;0.00;0.00;;;18.80;99.90;;;;;;5109544;28;20044;-86
2022/10/23 12:41:14;;;;;;;0.00;0.00;;;18.80;99.90;;;;;;5090966;28;20059;-87
2022/10/23 12:43:43;;;;;;;0.00;0.00;;;18.70;99.90;;;;;;5088572;28;20084;-86
2022/10/23 12:46:26;;;;;;;0.00;0.00;;;18.70;99.90;;;;;;5088754;28;20067;-85
2022/10/23 12:48:55;;;;;;;0.00;0.00;;;18.70;99.90;;;;;;5083401;28;20555;-86
2022/10/23 12:51:24;;;;;;;0.00;0.00;;;19.80;99.90;;;;;;5086179;28;20071;-85
2022/10/23 12:53:51;;;;;;;0.00;0.00;;;18.80;99.90;;;;;;5089763;28;20411;-85
2022/10/23 12:56:19;;;;;;;0.00;0.00;;;18.80;99.90;;;;;;5090290;28;20151;-87
2022/10/23 12:58:50;;;;;;;0.00;0.00;;;18.60;99.90;;;;;;5090151;28;20045;-85
2022/10/23 13:01:26;;;;;;;0.00;0.00;;;18.60;99.90;;;;;;5087499;28;20520;-85
2022/10/23 13:03:58;;;;;;;0.00;0.00;;;18.60;99.90;;;;;;5085794;28;20044;-86
2022/10/23 13:06:26;;;;;;;0.00;0.00;;;18.50;99.90;;;;;;5091828;28;20055;-86
2022/10/23 13:08:53;;;;;;;0.00;0.00;;;18.50;99.90;;;;;;5086958;28;20048;-84
2022/10/23 13:11:23;;;;;;;0.00;0.00;;;18.50;99.90;;;;;;5084707;28;20520;-84